Hlavní strana
METAR-TAF:

METAR-TAF

Letiště :

Donau

Neuburg, Německo

zeměpisná šířka: 48-43N, zeměpisná délka: 011-13E, výška: 380 m

Aktuální stav počasí

Zpráva byla vytvořena před 1 hodinou a 1 minutami, v 06:20 UTC
vítr z různých směrů 2 kt
Teplota 22°C
Vlhkost vzduchu 69%
Tlak 1014 hPa
Viditelnost 10 km a více
Skoro jasno ve výšce 7000 ft

METAR: ETSN 190620Z VRB02KT 9999 FEW070 22/16 Q1014 BLU+

Čas: 09:21 (07:21 UTC)


TAF: chybějící

Stav a předpovědi počasí z více než 4 000 letišť (zprávy METAR a TAF).

Červené a žluté tečky na mapě představují dostupné meteorologické stanice.

Když kurzor umístíte na tečku, zobrazí se název stanice.

Pak kliknutím zobrazíte stav a předpověď počasí.

Chcete-li změnit mapu, kliknutím na zelené tlačítko se znaménkem +mapu přiblížíte, kliknutím na zelené tlačítko se znaménkem – mapu oddálíte a kliknutím na zelené šipky přejdete na sousední mapy.


METAR-TAF: